Terminal Aerodrome Forecast
Issued by NWS

Home | Current Version | Previous Version | Text Only | Print | Product List | Glossary On
Versions: 1 2 3 4 5 6 7 8 9 10 11 12 13 14
849
FTUS46 KSEW 241740
TAFBLI
TAF
KBLI 241740Z 2418/2518 17014G24KT P6SM SCT018 BKN025
     FM242000 18010KT P6SM SCT025 BKN035
     FM242200 17008KT P6SM SCT035
     FM251300 17008KT P6SM SCT012 BKN035=

USA.gov is the U.S. government's official web portal to all federal, state and local government web resources and services.